sensor_id;sensor_type;location;lat;lon;timestamp;P1;durP1;ratioP1;P2;durP2;ratioP2
25057;SDS011;13057;50.978;11.034;2023-05-23T00:07:22;8.63;;;6.05;;
25057;SDS011;13057;50.978;11.034;2023-05-23T03:34:05;12.27;;;7.38;;
25057;SDS011;13057;50.978;11.034;2023-05-23T05:22:28;13.98;;;9.70;;
25057;SDS011;13057;50.978;11.034;2023-05-23T05:24:54;14.00;;;9.98;;
25057;SDS011;13057;50.978;11.034;2023-05-23T05:27:21;16.02;;;10.30;;
25057;SDS011;13057;50.978;11.034;2023-05-23T05:29:46;15.65;;;9.45;;
25057;SDS011;13057;50.978;11.034;2023-05-23T05:32:14;17.23;;;9.50;;
25057;SDS011;13057;50.978;11.034;2023-05-23T05:34:46;13.50;;;9.32;;
25057;SDS011;13057;50.978;11.034;2023-05-23T05:43:56;12.40;;;8.17;;
25057;SDS011;13057;50.978;11.034;2023-05-23T05:46:22;11.38;;;6.82;;
25057;SDS011;13057;50.978;11.034;2023-05-23T05:48:47;9.77;;;6.88;;
25057;SDS011;13057;50.978;11.034;2023-05-23T05:54:20;12.35;;;7.40;;
25057;SDS011;13057;50.978;11.034;2023-05-23T05:56:46;11.57;;;7.55;;
25057;SDS011;13057;50.978;11.034;2023-05-23T05:59:12;10.45;;;6.47;;
25057;SDS011;13057;50.978;11.034;2023-05-23T06:01:38;11.32;;;7.65;;
25057;SDS011;13057;50.978;11.034;2023-05-23T06:04:05;12.15;;;6.80;;
25057;SDS011;13057;50.978;11.034;2023-05-23T06:06:30;9.55;;;6.90;;
25057;SDS011;13057;50.978;11.034;2023-05-23T06:15:30;9.77;;;6.45;;
25057;SDS011;13057;50.978;11.034;2023-05-23T06:17:56;9.63;;;6.10;;
25057;SDS011;13057;50.978;11.034;2023-05-23T06:20:22;8.23;;;5.80;;
25057;SDS011;13057;50.978;11.034;2023-05-23T06:22:48;8.13;;;5.43;;
25057;SDS011;13057;50.978;11.034;2023-05-23T06:25:13;10.15;;;5.88;;
25057;SDS011;13057;50.978;11.034;2023-05-23T06:27:49;7.30;;;5.30;;
25057;SDS011;13057;50.978;11.034;2023-05-23T06:30:15;7.63;;;5.88;;
25057;SDS011;13057;50.978;11.034;2023-05-23T06:32:41;7.70;;;5.72;;
25057;SDS011;13057;50.978;11.034;2023-05-23T06:35:06;9.25;;;5.70;;
25057;SDS011;13057;50.978;11.034;2023-05-23T06:37:33;8.93;;;4.68;;
25057;SDS011;13057;50.978;11.034;2023-05-23T06:39:59;9.70;;;4.40;;
25057;SDS011;13057;50.978;11.034;2023-05-23T06:42:25;7.95;;;4.28;;
25057;SDS011;13057;50.978;11.034;2023-05-23T06:44:52;6.50;;;4.07;;
25057;SDS011;13057;50.978;11.034;2023-05-23T06:53:42;4.65;;;3.08;;
25057;SDS011;13057;50.978;11.034;2023-05-23T06:59:40;5.25;;;3.30;;
25057;SDS011;13057;50.978;11.034;2023-05-23T07:02:25;4.85;;;3.35;;
25057;SDS011;13057;50.978;11.034;2023-05-23T07:04:52;5.45;;;3.10;;
25057;SDS011;13057;50.978;11.034;2023-05-23T07:07:20;6.22;;;3.60;;
25057;SDS011;13057;50.978;11.034;2023-05-23T07:09:46;6.20;;;3.75;;
25057;SDS011;13057;50.978;11.034;2023-05-23T07:12:12;6.90;;;4.07;;
25057;SDS011;13057;50.978;11.034;2023-05-23T07:14:38;9.30;;;3.85;;
25057;SDS011;13057;50.978;11.034;2023-05-23T07:17:04;7.35;;;3.53;;
25057;SDS011;13057;50.978;11.034;2023-05-23T07:19:30;3.85;;;3.13;;
25057;SDS011;13057;50.978;11.034;2023-05-23T07:21:56;6.05;;;3.60;;
25057;SDS011;13057;50.978;11.034;2023-05-23T07:24:22;5.75;;;3.17;;
25057;SDS011;13057;50.978;11.034;2023-05-23T07:26:48;5.18;;;3.70;;
25057;SDS011;13057;50.978;11.034;2023-05-23T07:29:14;5.00;;;3.70;;
25057;SDS011;13057;50.978;11.034;2023-05-23T07:31:40;4.50;;;3.53;;
25057;SDS011;13057;50.978;11.034;2023-05-23T07:34:05;5.68;;;3.70;;
25057;SDS011;13057;50.978;11.034;2023-05-23T07:36:37;5.82;;;2.88;;
